sensor_id;sensor_type;location;lat;lon;timestamp;P1;durP1;ratioP1;P2;durP2;ratioP2
62435;SDS011;48480;50.252;18.848;2024-01-25T00:01:44;6.00;;;2.60;;
62435;SDS011;48480;50.252;18.848;2024-01-25T00:04:29;5.30;;;2.10;;
62435;SDS011;48480;50.252;18.848;2024-01-25T00:07:13;8.90;;;2.10;;
62435;SDS011;48480;50.252;18.848;2024-01-25T00:09:57;6.90;;;2.50;;
62435;SDS011;48480;50.252;18.848;2024-01-25T00:12:41;7.60;;;2.40;;
62435;SDS011;48480;50.252;18.848;2024-01-25T00:15:28;8.60;;;2.50;;
62435;SDS011;48480;50.252;18.848;2024-01-25T00:18:13;11.60;;;3.10;;
62435;SDS011;48480;50.252;18.848;2024-01-25T00:20:57;6.20;;;2.20;;
62435;SDS011;48480;50.252;18.848;2024-01-25T00:23:41;4.30;;;2.00;;
62435;SDS011;48480;50.252;18.848;2024-01-25T00:26:25;7.90;;;2.40;;
62435;SDS011;48480;50.252;18.848;2024-01-25T00:29:10;7.10;;;2.00;;
62435;SDS011;48480;50.252;18.848;2024-01-25T00:31:54;9.10;;;2.80;;
62435;SDS011;48480;50.252;18.848;2024-01-25T00:34:38;5.70;;;2.30;;
62435;SDS011;48480;50.252;18.848;2024-01-25T00:37:23;8.80;;;2.80;;
62435;SDS011;48480;50.252;18.848;2024-01-25T00:40:07;10.00;;;2.50;;
62435;SDS011;48480;50.252;18.848;2024-01-25T00:42:52;6.50;;;2.30;;
62435;SDS011;48480;50.252;18.848;2024-01-25T00:45:37;6.30;;;2.00;;
62435;SDS011;48480;50.252;18.848;2024-01-25T00:48:21;4.60;;;2.20;;
62435;SDS011;48480;50.252;18.848;2024-01-25T00:51:06;7.50;;;3.00;;
62435;SDS011;48480;50.252;18.848;2024-01-25T00:53:52;9.90;;;2.30;;
62435;SDS011;48480;50.252;18.848;2024-01-25T00:56:36;7.40;;;2.60;;
62435;SDS011;48480;50.252;18.848;2024-01-25T00:59:21;6.80;;;2.20;;
62435;SDS011;48480;50.252;18.848;2024-01-25T01:02:05;5.50;;;2.20;;
62435;SDS011;48480;50.252;18.848;2024-01-25T01:04:55;10.60;;;2.30;;
62435;SDS011;48480;50.252;18.848;2024-01-25T01:07:40;8.60;;;2.80;;
62435;SDS011;48480;50.252;18.848;2024-01-25T01:10:24;10.00;;;2.40;;
62435;SDS011;48480;50.252;18.848;2024-01-25T01:13:08;9.00;;;2.90;;
62435;SDS011;48480;50.252;18.848;2024-01-25T01:15:52;5.90;;;1.70;;
62435;SDS011;48480;50.252;18.848;2024-01-25T01:18:36;8.30;;;2.50;;
62435;SDS011;48480;50.252;18.848;2024-01-25T01:21:22;6.90;;;2.30;;
62435;SDS011;48480;50.252;18.848;2024-01-25T01:24:06;7.00;;;2.20;;
62435;SDS011;48480;50.252;18.848;2024-01-25T01:26:50;6.70;;;2.70;;
62435;SDS011;48480;50.252;18.848;2024-01-25T01:29:34;7.20;;;1.90;;
62435;SDS011;48480;50.252;18.848;2024-01-25T01:32:18;5.50;;;2.00;;
62435;SDS011;48480;50.252;18.848;2024-01-25T01:35:02;6.60;;;1.90;;
62435;SDS011;48480;50.252;18.848;2024-01-25T01:37:47;7.00;;;2.60;;
62435;SDS011;48480;50.252;18.848;2024-01-25T01:40:31;4.80;;;1.80;;
62435;SDS011;48480;50.252;18.848;2024-01-25T01:43:19;7.50;;;2.00;;
62435;SDS011;48480;50.252;18.848;2024-01-25T01:46:17;6.50;;;2.10;;
62435;SDS011;48480;50.252;18.848;2024-01-25T01:49:11;9.30;;;3.00;;
62435;SDS011;48480;50.252;18.848;2024-01-25T01:51:55;9.40;;;2.90;;
62435;SDS011;48480;50.252;18.848;2024-01-25T01:54:40;9.20;;;3.20;;
62435;SDS011;48480;50.252;18.848;2024-01-25T01:57:24;10.70;;;2.70;;
62435;SDS011;48480;50.252;18.848;2024-01-25T02:00:09;9.00;;;2.90;;
62435;SDS011;48480;50.252;18.848;2024-01-25T02:02:54;10.00;;;3.20;;
62435;SDS011;48480;50.252;18.848;2024-01-25T02:05:39;9.40;;;2.80;;
62435;SDS011;48480;50.252;18.848;2024-01-25T02:08:25;7.40;;;2.40;;
62435;SDS011;48480;50.252;18.848;2024-01-25T02:11:11;12.60;;;4.00;;
62435;SDS011;48480;50.252;18.848;2024-01-25T02:13:56;10.10;;;2.90;;
62435;SDS011;48480;50.252;18.848;2024-01-25T02:16:40;10.60;;;3.00;;
62435;SDS011;48480;50.252;18.848;2024-01-25T02:19:26;6.90;;;2.40;;
62435;SDS011;48480;50.252;18.848;2024-01-25T02:24:54;6.70;;;2.00;;
62435;SDS011;48480;50.252;18.848;2024-01-25T02:27:39;5.40;;;1.60;;
62435;SDS011;48480;50.252;18.848;2024-01-25T02:30:23;6.10;;;1.90;;
62435;SDS011;48480;50.252;18.848;2024-01-25T02:33:06;6.50;;;2.10;;
62435;SDS011;48480;50.252;18.848;2024-01-25T02:35:51;5.90;;;2.00;;
62435;SDS011;48480;50.252;18.848;2024-01-25T02:38:35;7.00;;;1.70;;
62435;SDS011;48480;50.252;18.848;2024-01-25T02:41:19;5.30;;;1.40;;
62435;SDS011;48480;50.252;18.848;2024-01-25T02:44:04;7.00;;;2.20;;
62435;SDS011;48480;50.252;18.848;2024-01-25T02:46:48;4.20;;;1.50;;
62435;SDS011;48480;50.252;18.848;2024-01-25T02:49:32;5.60;;;2.10;;
62435;SDS011;48480;50.252;18.848;2024-01-25T02:52:16;11.50;;;2.40;;
62435;SDS011;48480;50.252;18.848;2024-01-25T02:55:00;4.60;;;1.20;;
62435;SDS011;48480;50.252;18.848;2024-01-25T02:57:43;8.20;;;2.00;;
62435;SDS011;48480;50.252;18.848;2024-01-25T03:00:27;6.70;;;1.90;;
62435;SDS011;48480;50.252;18.848;2024-01-25T03:03:13;5.00;;;1.70;;
62435;SDS011;48480;50.252;18.848;2024-01-25T03:05:57;4.60;;;1.60;;
62435;SDS011;48480;50.252;18.848;2024-01-25T03:08:41;7.30;;;1.90;;
62435;SDS011;48480;50.252;18.848;2024-01-25T03:11:25;5.00;;;1.50;;
62435;SDS011;48480;50.252;18.848;2024-01-25T03:14:09;4.30;;;1.70;;
62435;SDS011;48480;50.252;18.848;2024-01-25T03:16:53;5.30;;;1.40;;
62435;SDS011;48480;50.252;18.848;2024-01-25T03:19:38;5.40;;;1.50;;
62435;SDS011;48480;50.252;18.848;2024-01-25T03:22:22;6.60;;;1.30;;
62435;SDS011;48480;50.252;18.848;2024-01-25T03:25:06;5.30;;;1.60;;
62435;SDS011;48480;50.252;18.848;2024-01-25T03:27:52;7.70;;;2.30;;
62435;SDS011;48480;50.252;18.848;2024-01-25T03:30:36;4.40;;;1.10;;
62435;SDS011;48480;50.252;18.848;2024-01-25T03:33:20;6.90;;;2.10;;
62435;SDS011;48480;50.252;18.848;2024-01-25T03:36:05;6.30;;;1.60;;
62435;SDS011;48480;50.252;18.848;2024-01-25T03:38:50;9.90;;;2.20;;
62435;SDS011;48480;50.252;18.848;2024-01-25T03:41:33;3.70;;;1.20;;
62435;SDS011;48480;50.252;18.848;2024-01-25T03:44:17;8.60;;;1.40;;
62435;SDS011;48480;50.252;18.848;2024-01-25T03:47:01;3.50;;;1.20;;
62435;SDS011;48480;50.252;18.848;2024-01-25T03:49:45;5.20;;;1.80;;
62435;SDS011;48480;50.252;18.848;2024-01-25T03:52:29;7.60;;;1.60;;
62435;SDS011;48480;50.252;18.848;2024-01-25T03:55:14;4.40;;;1.10;;
62435;SDS011;48480;50.252;18.848;2024-01-25T03:57:58;5.30;;;1.30;;
62435;SDS011;48480;50.252;18.848;2024-01-25T04:00:42;6.50;;;2.10;;
62435;SDS011;48480;50.252;18.848;2024-01-25T04:03:26;5.10;;;1.60;;
62435;SDS011;48480;50.252;18.848;2024-01-25T04:06:10;5.10;;;1.70;;
62435;SDS011;48480;50.252;18.848;2024-01-25T04:08:54;8.60;;;2.00;;
62435;SDS011;48480;50.252;18.848;2024-01-25T04:11:38;8.30;;;2.00;;
62435;SDS011;48480;50.252;18.848;2024-01-25T04:14:23;6.20;;;1.90;;
62435;SDS011;48480;50.252;18.848;2024-01-25T04:17:07;7.40;;;1.90;;
62435;SDS011;48480;50.252;18.848;2024-01-25T04:19:51;5.60;;;1.70;;
62435;SDS011;48480;50.252;18.848;2024-01-25T04:22:36;3.10;;;1.30;;
62435;SDS011;48480;50.252;18.848;2024-01-25T04:25:21;6.60;;;1.70;;
62435;SDS011;48480;50.252;18.848;2024-01-25T04:28:05;7.20;;;2.40;;
62435;SDS011;48480;50.252;18.848;2024-01-25T04:30:50;5.90;;;1.60;;
62435;SDS011;48480;50.252;18.848;2024-01-25T04:33:34;7.20;;;2.00;;
62435;SDS011;48480;50.252;18.848;2024-01-25T04:36:17;6.00;;;1.80;;
62435;SDS011;48480;50.252;18.848;2024-01-25T04:39:02;5.90;;;1.70;;
62435;SDS011;48480;50.252;18.848;2024-01-25T04:41:47;7.30;;;2.00;;
62435;SDS011;48480;50.252;18.848;2024-01-25T04:44:32;7.80;;;1.70;;
62435;SDS011;48480;50.252;18.848;2024-01-25T04:47:15;6.90;;;1.90;;
62435;SDS011;48480;50.252;18.848;2024-01-25T04:50:00;4.70;;;1.50;;
62435;SDS011;48480;50.252;18.848;2024-01-25T04:52:44;4.80;;;1.30;;
62435;SDS011;48480;50.252;18.848;2024-01-25T04:55:28;6.60;;;1.90;;
62435;SDS011;48480;50.252;18.848;2024-01-25T04:58:12;5.80;;;1.40;;
62435;SDS011;48480;50.252;18.848;2024-01-25T05:00:56;3.60;;;1.30;;
62435;SDS011;48480;50.252;18.848;2024-01-25T05:03:40;5.20;;;1.60;;
62435;SDS011;48480;50.252;18.848;2024-01-25T05:06:25;4.60;;;1.60;;
62435;SDS011;48480;50.252;18.848;2024-01-25T05:09:09;4.10;;;1.60;;
62435;SDS011;48480;50.252;18.848;2024-01-25T05:11:53;6.80;;;1.80;;
62435;SDS011;48480;50.252;18.848;2024-01-25T05:14:42;6.90;;;2.00;;
62435;SDS011;48480;50.252;18.848;2024-01-25T05:17:26;7.10;;;1.60;;
62435;SDS011;48480;50.252;18.848;2024-01-25T05:20:11;6.30;;;2.00;;
62435;SDS011;48480;50.252;18.848;2024-01-25T05:22:56;6.30;;;1.90;;
62435;SDS011;48480;50.252;18.848;2024-01-25T05:25:41;9.00;;;1.70;;
62435;SDS011;48480;50.252;18.848;2024-01-25T05:28:25;4.10;;;1.10;;
62435;SDS011;48480;50.252;18.848;2024-01-25T05:31:09;6.40;;;1.70;;
62435;SDS011;48480;50.252;18.848;2024-01-25T05:33:56;5.10;;;1.90;;
62435;SDS011;48480;50.252;18.848;2024-01-25T05:36:40;4.30;;;1.30;;
62435;SDS011;48480;50.252;18.848;2024-01-25T05:39:26;3.70;;;1.00;;
62435;SDS011;48480;50.252;18.848;2024-01-25T05:42:09;6.10;;;2.00;;
62435;SDS011;48480;50.252;18.848;2024-01-25T05:44:54;7.30;;;2.40;;
62435;SDS011;48480;50.252;18.848;2024-01-25T05:47:38;7.80;;;2.30;;
62435;SDS011;48480;50.252;18.848;2024-01-25T05:50:22;5.00;;;2.00;;
62435;SDS011;48480;50.252;18.848;2024-01-25T05:53:07;9.00;;;2.50;;
62435;SDS011;48480;50.252;18.848;2024-01-25T05:55:51;8.70;;;3.00;;
62435;SDS011;48480;50.252;18.848;2024-01-25T05:58:35;9.70;;;2.70;;
62435;SDS011;48480;50.252;18.848;2024-01-25T06:01:19;10.50;;;3.10;;
62435;SDS011;48480;50.252;18.848;2024-01-25T06:04:04;6.70;;;3.30;;
62435;SDS011;48480;50.252;18.848;2024-01-25T06:06:48;6.50;;;2.30;;
62435;SDS011;48480;50.252;18.848;2024-01-25T06:09:32;7.10;;;2.00;;
62435;SDS011;48480;50.252;18.848;2024-01-25T06:12:16;6.20;;;2.00;;
62435;SDS011;48480;50.252;18.848;2024-01-25T06:15:00;9.10;;;2.40;;
62435;SDS011;48480;50.252;18.848;2024-01-25T06:17:45;8.40;;;2.30;;
62435;SDS011;48480;50.252;18.848;2024-01-25T06:20:28;6.20;;;1.80;;
62435;SDS011;48480;50.252;18.848;2024-01-25T06:23:13;7.80;;;2.00;;
62435;SDS011;48480;50.252;18.848;2024-01-25T06:25:57;8.20;;;2.50;;
62435;SDS011;48480;50.252;18.848;2024-01-25T06:28:41;4.90;;;2.00;;
62435;SDS011;48480;50.252;18.848;2024-01-25T06:31:25;10.10;;;3.40;;
62435;SDS011;48480;50.252;18.848;2024-01-25T06:34:09;8.30;;;3.00;;
62435;SDS011;48480;50.252;18.848;2024-01-25T06:42:29;10.20;;;2.60;;
62435;SDS011;48480;50.252;18.848;2024-01-25T06:45:13;9.10;;;3.00;;
62435;SDS011;48480;50.252;18.848;2024-01-25T06:47:57;8.50;;;2.50;;
62435;SDS011;48480;50.252;18.848;2024-01-25T06:50:41;7.60;;;1.90;;
62435;SDS011;48480;50.252;18.848;2024-01-25T06:53:25;9.00;;;2.00;;
62435;SDS011;48480;50.252;18.848;2024-01-25T06:56:09;3.20;;;1.80;;
62435;SDS011;48480;50.252;18.848;2024-01-25T06:58:53;7.10;;;2.40;;
62435;SDS011;48480;50.252;18.848;2024-01-25T07:01:37;16.90;;;5.70;;
62435;SDS011;48480;50.252;18.848;2024-01-25T07:04:21;10.00;;;4.20;;
62435;SDS011;48480;50.252;18.848;2024-01-25T07:07:06;7.40;;;2.20;;
62435;SDS011;48480;50.252;18.848;2024-01-25T07:09:50;7.70;;;2.40;;
62435;SDS011;48480;50.252;18.848;2024-01-25T07:12:34;4.30;;;1.40;;
62435;SDS011;48480;50.252;18.848;2024-01-25T07:15:19;6.10;;;1.80;;
62435;SDS011;48480;50.252;18.848;2024-01-25T07:18:04;7.40;;;2.10;;
62435;SDS011;48480;50.252;18.848;2024-01-25T07:20:48;3.90;;;1.30;;
62435;SDS011;48480;50.252;18.848;2024-01-25T07:23:33;4.20;;;1.60;;
62435;SDS011;48480;50.252;18.848;2024-01-25T07:26:18;7.30;;;2.00;;
62435;SDS011;48480;50.252;18.848;2024-01-25T07:29:02;4.10;;;1.40;;
62435;SDS011;48480;50.252;18.848;2024-01-25T07:31:46;5.40;;;1.90;;
62435;SDS011;48480;50.252;18.848;2024-01-25T07:34:30;10.00;;;2.70;;
62435;SDS011;48480;50.252;18.848;2024-01-25T07:37:14;12.30;;;5.00;;
62435;SDS011;48480;50.252;18.848;2024-01-25T07:40:00;9.00;;;3.40;;
62435;SDS011;48480;50.252;18.848;2024-01-25T07:42:46;7.30;;;1.90;;
62435;SDS011;48480;50.252;18.848;2024-01-25T07:45:31;8.90;;;2.00;;
62435;SDS011;48480;50.252;18.848;2024-01-25T07:48:16;4.10;;;1.20;;
62435;SDS011;48480;50.252;18.848;2024-01-25T07:51:00;4.20;;;1.50;;
62435;SDS011;48480;50.252;18.848;2024-01-25T07:53:44;8.80;;;2.40;;
62435;SDS011;48480;50.252;18.848;2024-01-25T07:56:28;11.60;;;2.40;;
62435;SDS011;48480;50.252;18.848;2024-01-25T07:59:13;8.60;;;2.60;;
62435;SDS011;48480;50.252;18.848;2024-01-25T08:01:57;6.30;;;2.10;;
62435;SDS011;48480;50.252;18.848;2024-01-25T08:04:42;5.10;;;1.80;;
62435;SDS011;48480;50.252;18.848;2024-01-25T08:07:26;6.20;;;1.80;;
62435;SDS011;48480;50.252;18.848;2024-01-25T08:10:11;4.50;;;1.70;;
62435;SDS011;48480;50.252;18.848;2024-01-25T08:12:55;5.30;;;1.60;;
62435;SDS011;48480;50.252;18.848;2024-01-25T08:15:40;5.90;;;1.80;;
62435;SDS011;48480;50.252;18.848;2024-01-25T08:18:24;5.20;;;1.90;;
62435;SDS011;48480;50.252;18.848;2024-01-25T08:21:12;7.80;;;1.80;;
62435;SDS011;48480;50.252;18.848;2024-01-25T08:23:57;14.60;;;4.20;;
62435;SDS011;48480;50.252;18.848;2024-01-25T08:26:41;8.90;;;2.90;;
62435;SDS011;48480;50.252;18.848;2024-01-25T08:29:25;6.40;;;1.90;;
62435;SDS011;48480;50.252;18.848;2024-01-25T08:32:09;7.50;;;2.00;;
62435;SDS011;48480;50.252;18.848;2024-01-25T08:34:53;9.00;;;2.30;;
62435;SDS011;48480;50.252;18.848;2024-01-25T08:37:37;3.70;;;1.70;;
62435;SDS011;48480;50.252;18.848;2024-01-25T08:40:22;6.00;;;1.70;;
62435;SDS011;48480;50.252;18.848;2024-01-25T08:43:06;7.70;;;2.70;;
62435;SDS011;48480;50.252;18.848;2024-01-25T08:45:51;9.30;;;3.00;;
62435;SDS011;48480;50.252;18.848;2024-01-25T08:48:35;12.00;;;4.10;;
62435;SDS011;48480;50.252;18.848;2024-01-25T08:51:20;12.70;;;3.60;;
62435;SDS011;48480;50.252;18.848;2024-01-25T08:54:03;7.30;;;2.30;;
62435;SDS011;48480;50.252;18.848;2024-01-25T08:56:48;6.00;;;2.30;;
62435;SDS011;48480;50.252;18.848;2024-01-25T08:59:32;12.80;;;2.80;;
62435;SDS011;48480;50.252;18.848;2024-01-25T09:02:20;9.70;;;2.80;;
62435;SDS011;48480;50.252;18.848;2024-01-25T09:05:10;7.80;;;2.30;;
62435;SDS011;48480;50.252;18.848;2024-01-25T09:07:54;9.20;;;2.20;;
62435;SDS011;48480;50.252;18.848;2024-01-25T09:10:39;9.70;;;2.20;;
62435;SDS011;48480;50.252;18.848;2024-01-25T09:13:24;8.00;;;2.40;;
62435;SDS011;48480;50.252;18.848;2024-01-25T09:16:09;11.30;;;2.90;;
62435;SDS011;48480;50.252;18.848;2024-01-25T09:18:53;10.30;;;2.70;;
62435;SDS011;48480;50.252;18.848;2024-01-25T09:21:40;9.70;;;2.40;;
62435;SDS011;48480;50.252;18.848;2024-01-25T09:24:24;6.80;;;2.00;;
62435;SDS011;48480;50.252;18.848;2024-01-25T09:27:08;11.20;;;3.40;;
62435;SDS011;48480;50.252;18.848;2024-01-25T09:29:53;12.90;;;3.00;;
62435;SDS011;48480;50.252;18.848;2024-01-25T09:32:37;9.60;;;3.20;;
62435;SDS011;48480;50.252;18.848;2024-01-25T09:35:22;10.30;;;3.40;;
62435;SDS011;48480;50.252;18.848;2024-01-25T09:38:06;12.90;;;2.80;;
62435;SDS011;48480;50.252;18.848;2024-01-25T09:40:50;8.70;;;2.30;;
62435;SDS011;48480;50.252;18.848;2024-01-25T09:43:35;12.70;;;2.60;;
62435;SDS011;48480;50.252;18.848;2024-01-25T09:46:20;7.60;;;2.30;;
62435;SDS011;48480;50.252;18.848;2024-01-25T09:49:05;8.50;;;2.50;;
62435;SDS011;48480;50.252;18.848;2024-01-25T09:51:50;11.10;;;2.60;;
62435;SDS011;48480;50.252;18.848;2024-01-25T09:54:35;7.90;;;2.30;;
62435;SDS011;48480;50.252;18.848;2024-01-25T10:00:13;7.40;;;2.40;;
62435;SDS011;48480;50.252;18.848;2024-01-25T10:02:57;10.50;;;2.60;;
62435;SDS011;48480;50.252;18.848;2024-01-25T10:05:51;11.00;;;3.10;;
62435;SDS011;48480;50.252;18.848;2024-01-25T10:08:45;6.50;;;3.20;;
62435;SDS011;48480;50.252;18.848;2024-01-25T10:11:29;8.20;;;2.10;;
62435;SDS011;48480;50.252;18.848;2024-01-25T10:14:19;11.90;;;3.00;;
62435;SDS011;48480;50.252;18.848;2024-01-25T10:17:02;9.40;;;2.60;;
62435;SDS011;48480;50.252;18.848;2024-01-25T10:19:47;10.10;;;2.90;;
62435;SDS011;48480;50.252;18.848;2024-01-25T10:22:31;8.20;;;2.50;;
62435;SDS011;48480;50.252;18.848;2024-01-25T10:28:05;14.30;;;3.10;;
62435;SDS011;48480;50.252;18.848;2024-01-25T10:30:49;5.20;;;2.30;;
62435;SDS011;48480;50.252;18.848;2024-01-25T10:33:34;9.60;;;3.90;;
62435;SDS011;48480;50.252;18.848;2024-01-25T10:36:21;11.40;;;2.90;;
62435;SDS011;48480;50.252;18.848;2024-01-25T10:39:05;12.10;;;3.30;;
62435;SDS011;48480;50.252;18.848;2024-01-25T10:41:52;8.30;;;2.70;;
62435;SDS011;48480;50.252;18.848;2024-01-25T10:44:37;12.00;;;2.80;;
62435;SDS011;48480;50.252;18.848;2024-01-25T10:47:21;3.70;;;1.60;;
62435;SDS011;48480;50.252;18.848;2024-01-25T10:50:06;6.90;;;2.20;;
62435;SDS011;48480;50.252;18.848;2024-01-25T10:52:55;8.80;;;2.20;;
62435;SDS011;48480;50.252;18.848;2024-01-25T10:55:40;9.70;;;3.30;;
62435;SDS011;48480;50.252;18.848;2024-01-25T10:58:23;8.20;;;2.40;;
62435;SDS011;48480;50.252;18.848;2024-01-25T11:01:08;7.30;;;2.50;;
62435;SDS011;48480;50.252;18.848;2024-01-25T11:03:55;6.80;;;2.10;;
62435;SDS011;48480;50.252;18.848;2024-01-25T11:06:39;10.80;;;2.80;;
62435;SDS011;48480;50.252;18.848;2024-01-25T11:09:23;6.10;;;2.00;;
62435;SDS011;48480;50.252;18.848;2024-01-25T11:12:11;8.20;;;2.50;;
62435;SDS011;48480;50.252;18.848;2024-01-25T11:14:57;10.40;;;2.70;;
62435;SDS011;48480;50.252;18.848;2024-01-25T11:17:41;10.60;;;2.70;;
62435;SDS011;48480;50.252;18.848;2024-01-25T11:20:26;7.10;;;2.20;;
62435;SDS011;48480;50.252;18.848;2024-01-25T11:23:11;6.50;;;2.60;;
62435;SDS011;48480;50.252;18.848;2024-01-25T11:25:59;10.60;;;2.40;;
62435;SDS011;48480;50.252;18.848;2024-01-25T11:28:43;10.10;;;3.40;;
62435;SDS011;48480;50.252;18.848;2024-01-25T11:31:27;14.00;;;6.10;;
62435;SDS011;48480;50.252;18.848;2024-01-25T11:34:12;12.60;;;4.20;;
62435;SDS011;48480;50.252;18.848;2024-01-25T11:36:57;9.40;;;2.90;;
62435;SDS011;48480;50.252;18.848;2024-01-25T11:39:43;11.20;;;2.90;;
62435;SDS011;48480;50.252;18.848;2024-01-25T11:42:26;7.00;;;1.90;;
62435;SDS011;48480;50.252;18.848;2024-01-25T11:45:14;6.00;;;2.10;;
62435;SDS011;48480;50.252;18.848;2024-01-25T11:47:58;5.90;;;1.80;;
62435;SDS011;48480;50.252;18.848;2024-01-25T11:50:42;6.90;;;2.30;;
62435;SDS011;48480;50.252;18.848;2024-01-25T11:53:28;4.00;;;1.70;;
62435;SDS011;48480;50.252;18.848;2024-01-25T11:56:14;6.20;;;2.10;;
62435;SDS011;48480;50.252;18.848;2024-01-25T11:59:00;9.20;;;2.50;;
62435;SDS011;48480;50.252;18.848;2024-01-25T12:01:45;8.10;;;2.30;;
62435;SDS011;48480;50.252;18.848;2024-01-25T12:04:30;5.50;;;2.00;;
62435;SDS011;48480;50.252;18.848;2024-01-25T12:07:14;5.90;;;1.80;;
62435;SDS011;48480;50.252;18.848;2024-01-25T12:09:59;8.80;;;2.20;;
62435;SDS011;48480;50.252;18.848;2024-01-25T12:12:46;7.30;;;1.90;;
62435;SDS011;48480;50.252;18.848;2024-01-25T12:15:32;12.20;;;2.90;;
62435;SDS011;48480;50.252;18.848;2024-01-25T12:18:16;7.00;;;1.90;;
62435;SDS011;48480;50.252;18.848;2024-01-25T12:21:02;9.10;;;2.90;;
62435;SDS011;48480;50.252;18.848;2024-01-25T12:23:47;7.80;;;2.20;;
62435;SDS011;48480;50.252;18.848;2024-01-25T12:26:33;10.60;;;3.10;;
62435;SDS011;48480;50.252;18.848;2024-01-25T12:29:21;7.90;;;2.60;;
62435;SDS011;48480;50.252;18.848;2024-01-25T12:32:05;6.60;;;2.40;;
62435;SDS011;48480;50.252;18.848;2024-01-25T12:35:07;9.20;;;2.10;;
62435;SDS011;48480;50.252;18.848;2024-01-25T12:37:52;9.20;;;2.70;;
62435;SDS011;48480;50.252;18.848;2024-01-25T12:40:36;7.90;;;1.90;;
62435;SDS011;48480;50.252;18.848;2024-01-25T12:43:20;5.50;;;2.00;;
62435;SDS011;48480;50.252;18.848;2024-01-25T12:46:07;9.80;;;2.60;;
62435;SDS011;48480;50.252;18.848;2024-01-25T12:48:51;7.90;;;2.30;;
62435;SDS011;48480;50.252;18.848;2024-01-25T12:51:39;11.30;;;3.70;;
62435;SDS011;48480;50.252;18.848;2024-01-25T12:54:23;8.20;;;3.20;;
62435;SDS011;48480;50.252;18.848;2024-01-25T12:57:07;8.50;;;2.20;;
62435;SDS011;48480;50.252;18.848;2024-01-25T12:59:52;6.90;;;2.20;;
62435;SDS011;48480;50.252;18.848;2024-01-25T13:02:36;6.90;;;2.30;;
62435;SDS011;48480;50.252;18.848;2024-01-25T13:05:20;4.60;;;2.20;;
62435;SDS011;48480;50.252;18.848;2024-01-25T13:08:04;5.90;;;1.90;;
62435;SDS011;48480;50.252;18.848;2024-01-25T13:10:49;11.80;;;3.60;;
62435;SDS011;48480;50.252;18.848;2024-01-25T13:13:33;10.30;;;2.40;;
62435;SDS011;48480;50.252;18.848;2024-01-25T13:16:17;9.30;;;3.20;;
62435;SDS011;48480;50.252;18.848;2024-01-25T13:19:01;13.60;;;4.70;;
62435;SDS011;48480;50.252;18.848;2024-01-25T13:21:45;10.50;;;3.30;;
62435;SDS011;48480;50.252;18.848;2024-01-25T13:24:30;12.00;;;2.80;;
62435;SDS011;48480;50.252;18.848;2024-01-25T13:27:14;10.80;;;3.10;;
62435;SDS011;48480;50.252;18.848;2024-01-25T13:29:58;7.80;;;2.80;;
62435;SDS011;48480;50.252;18.848;2024-01-25T13:32:41;7.70;;;1.80;;
62435;SDS011;48480;50.252;18.848;2024-01-25T13:35:25;9.40;;;3.30;;
62435;SDS011;48480;50.252;18.848;2024-01-25T13:38:09;8.80;;;2.60;;
62435;SDS011;48480;50.252;18.848;2024-01-25T13:40:57;10.90;;;3.60;;
62435;SDS011;48480;50.252;18.848;2024-01-25T13:43:42;9.30;;;2.60;;
62435;SDS011;48480;50.252;18.848;2024-01-25T13:46:25;7.60;;;2.60;;
62435;SDS011;48480;50.252;18.848;2024-01-25T13:49:09;13.40;;;4.20;;
62435;SDS011;48480;50.252;18.848;2024-01-25T13:51:53;13.20;;;4.20;;
62435;SDS011;48480;50.252;18.848;2024-01-25T13:54:38;8.40;;;3.70;;
62435;SDS011;48480;50.252;18.848;2024-01-25T13:57:22;8.60;;;3.00;;
62435;SDS011;48480;50.252;18.848;2024-01-25T14:00:07;11.60;;;3.90;;
62435;SDS011;48480;50.252;18.848;2024-01-25T14:02:52;9.10;;;3.10;;
62435;SDS011;48480;50.252;18.848;2024-01-25T14:05:36;10.40;;;3.10;;
62435;SDS011;48480;50.252;18.848;2024-01-25T14:08:20;8.10;;;2.90;;
62435;SDS011;48480;50.252;18.848;2024-01-25T14:11:04;6.20;;;2.20;;
62435;SDS011;48480;50.252;18.848;2024-01-25T14:13:49;6.50;;;2.70;;
62435;SDS011;48480;50.252;18.848;2024-01-25T14:16:40;15.50;;;8.30;;
62435;SDS011;48480;50.252;18.848;2024-01-25T14:21:59;11.40;;;3.70;;
62435;SDS011;48480;50.252;18.848;2024-01-25T14:24:44;7.30;;;2.70;;
62435;SDS011;48480;50.252;18.848;2024-01-25T14:27:29;8.90;;;2.60;;
62435;SDS011;48480;50.252;18.848;2024-01-25T14:30:13;11.30;;;2.70;;
62435;SDS011;48480;50.252;18.848;2024-01-25T14:32:58;8.60;;;2.70;;
62435;SDS011;48480;50.252;18.848;2024-01-25T14:35:42;7.80;;;2.10;;
62435;SDS011;48480;50.252;18.848;2024-01-25T14:38:27;10.30;;;2.80;;
62435;SDS011;48480;50.252;18.848;2024-01-25T14:41:11;9.80;;;3.30;;
62435;SDS011;48480;50.252;18.848;2024-01-25T14:43:55;10.90;;;4.00;;
62435;SDS011;48480;50.252;18.848;2024-01-25T14:46:39;12.60;;;2.60;;
62435;SDS011;48480;50.252;18.848;2024-01-25T14:49:23;9.90;;;2.70;;
62435;SDS011;48480;50.252;18.848;2024-01-25T14:52:07;7.50;;;2.50;;
62435;SDS011;48480;50.252;18.848;2024-01-25T14:54:51;8.50;;;3.00;;
62435;SDS011;48480;50.252;18.848;2024-01-25T14:57:35;13.00;;;3.20;;
62435;SDS011;48480;50.252;18.848;2024-01-25T15:00:20;12.60;;;3.40;;
62435;SDS011;48480;50.252;18.848;2024-01-25T15:03:05;7.70;;;2.90;;
62435;SDS011;48480;50.252;18.848;2024-01-25T15:05:50;13.60;;;3.80;;
62435;SDS011;48480;50.252;18.848;2024-01-25T15:08:34;6.70;;;2.30;;
62435;SDS011;48480;50.252;18.848;2024-01-25T15:11:18;5.60;;;2.20;;
62435;SDS011;48480;50.252;18.848;2024-01-25T15:14:02;5.10;;;2.10;;
62435;SDS011;48480;50.252;18.848;2024-01-25T15:16:46;10.50;;;2.70;;
62435;SDS011;48480;50.252;18.848;2024-01-25T15:19:31;14.40;;;3.50;;
62435;SDS011;48480;50.252;18.848;2024-01-25T15:22:15;10.60;;;3.10;;
62435;SDS011;48480;50.252;18.848;2024-01-25T15:24:59;8.30;;;2.20;;
62435;SDS011;48480;50.252;18.848;2024-01-25T15:27:43;7.30;;;3.00;;
62435;SDS011;48480;50.252;18.848;2024-01-25T15:30:27;6.90;;;1.60;;
62435;SDS011;48480;50.252;18.848;2024-01-25T15:33:11;9.50;;;2.30;;
62435;SDS011;48480;50.252;18.848;2024-01-25T15:35:55;12.40;;;3.10;;
62435;SDS011;48480;50.252;18.848;2024-01-25T15:38:39;9.30;;;3.10;;
62435;SDS011;48480;50.252;18.848;2024-01-25T15:41:25;7.00;;;3.80;;
62435;SDS011;48480;50.252;18.848;2024-01-25T15:44:10;9.70;;;3.30;;
62435;SDS011;48480;50.252;18.848;2024-01-25T15:46:54;6.90;;;3.00;;
62435;SDS011;48480;50.252;18.848;2024-01-25T15:49:38;9.50;;;3.50;;
62435;SDS011;48480;50.252;18.848;2024-01-25T15:52:22;7.40;;;3.40;;
62435;SDS011;48480;50.252;18.848;2024-01-25T15:55:07;5.40;;;1.70;;
62435;SDS011;48480;50.252;18.848;2024-01-25T15:57:51;8.50;;;3.20;;
62435;SDS011;48480;50.252;18.848;2024-01-25T16:00:36;9.80;;;3.60;;
62435;SDS011;48480;50.252;18.848;2024-01-25T16:03:20;11.70;;;3.50;;
62435;SDS011;48480;50.252;18.848;2024-01-25T16:06:04;9.90;;;3.30;;
62435;SDS011;48480;50.252;18.848;2024-01-25T16:08:48;24.40;;;7.00;;
62435;SDS011;48480;50.252;18.848;2024-01-25T16:11:32;11.40;;;3.80;;
62435;SDS011;48480;50.252;18.848;2024-01-25T16:14:16;13.30;;;5.40;;
62435;SDS011;48480;50.252;18.848;2024-01-25T16:17:01;38.40;;;16.90;;
62435;SDS011;48480;50.252;18.848;2024-01-25T16:19:46;30.40;;;12.70;;
62435;SDS011;48480;50.252;18.848;2024-01-25T16:22:30;17.30;;;6.40;;
62435;SDS011;48480;50.252;18.848;2024-01-25T16:25:15;14.10;;;4.90;;
62435;SDS011;48480;50.252;18.848;2024-01-25T16:27:59;10.30;;;4.10;;
62435;SDS011;48480;50.252;18.848;2024-01-25T16:30:44;19.20;;;6.80;;